Terminal Aerodrome Forecast
Issued by NWS

Home | Current Version | Previous Version | Text Only | Print | Product List | Glossary On
Versions: 1 2 3 4 5 6 7 8 9 10 11 12 13 14 15 16
198
FTUS41 KPBZ 030520
TAFBVI
TAF
KBVI 030520Z 0306/0406 35005KT P6SM OVC025
     FM031000 35005KT P6SM BKN015
     FM031400 32005KT P6SM BKN025
     FM031600 33005KT P6SM BKN050
      AMD NOT SKED=

USA.gov is the U.S. government's official web portal to all federal, state and local government web resources and services.